Agios Georgios I — SX9857 — position and weather

sailwx.info

Track history (hours):
 
Tides and Currents Weather Stations Pressure Air Temp Water Temp Dewpoint Dewpoint Depression Visibility Wind Speed Wind Dir Waves Ship Positions

Agios Georgios I

Last reported at 2014-Sep-15 13:33 UTC. Time now 2014-Sep-17 07:33 UTC.
Position N 37°57' E 026°25'.

Length 59 m; draft 5 m.

Type: Ship (hazmat cat B). MMSI: 239912000.

Date/timePositionNaut miles runAvg speedWind from/ knotsBaromVisibWave heightAir tempDewpointWater temp
2014-Sep-15 13:33N 37°57' E 026°25'8 8.2
2014-Sep-15 12:33N 37°52' E 026°34'5 1.3
2014-Sep-15 08:30N 37°47' E 026°35'25 8.4
2014-Sep-15 05:33N 37°41' E 026°05'18 7.9
2014-Sep-15 03:16N 37°36' E 025°43'6 8.2
2014-Sep-15 02:32N 37°34' E 025°36'8 8.6
2014-Sep-15 01:33N 37°32' E 025°26'7 7.3
2014-Sep-15 00:33N 37°29' E 025°18'2 1.5
2014-Sep-14 23:33N 37°28' E 025°19'0 0.0
2014-Sep-14 22:33N 37°28' E 025°19'0 0.0
2014-Sep-14 21:33N 37°28' E 025°19'0 0.0
2014-Sep-14 20:33N 37°28' E 025°19'3 3.0
2014-Sep-14 19:33N 37°27' E 025°16'9 8.6
2014-Sep-14 18:33N 37°27' E 025°05'7 6.8
2014-Sep-14 17:32N 37°26' E 024°56'0 0.0
2014-Sep-14 16:32N 37°26' E 024°56'0 0.0
2014-Sep-14 15:33N 37°26' E 024°56'0 0.0
2014-Sep-14 14:32N 37°26' E 024°56'0 0.0
2014-Sep-14 13:33N 37°26' E 024°56'0 0.0
2014-Sep-14 12:33N 37°26' E 024°56'0 0.0
2014-Sep-14 11:32N 37°26' E 024°56'0 0.0
2014-Sep-14 10:32N 37°26' E 024°56'7 6.7
2014-Sep-14 09:33N 37°20' E 025°00'8 8.4
2014-Sep-14 08:33N 37°12' E 025°03'8 8.0
2014-Sep-14 07:33N 37°05' E 025°08'1 0.5
2014-Sep-14 06:32N 37°05' E 025°09'0 0.0
2014-Sep-14 05:32N 37°05' E 025°09'0 0.0
2014-Sep-14 04:31N 37°05' E 025°09'5 5.7
2014-Sep-14 03:33N 37°10' E 025°13'7 7.1
2014-Sep-14 02:33N 37°07' E 025°21'1 0.9
2014-Sep-14 01:33N 37°06' E 025°22'0 0.0
2014-Sep-13 21:33N 37°06' E 025°22'0 0.0
2014-Sep-13 20:32N 37°06' E 025°22'0 0.0
2014-Sep-13 19:32N 37°06' E 025°22'0 0.0
2014-Sep-13 18:33N 37°06' E 025°22'0 0.0
2014-Sep-13 17:33N 37°06' E 025°22'0 0.0
2014-Sep-13 16:33N 37°06' E 025°22'0 0.3
2014-Sep-13 15:33N 37°06' E 025°22'0 0.3
2014-Sep-13 14:33N 37°06' E 025°22'0 0.0
2014-Sep-13 13:33N 37°06' E 025°22'0 0.0
2014-Sep-13 12:33N 37°06' E 025°22'0 0.0
2014-Sep-13 11:33N 37°06' E 025°22'0 0.0
2014-Sep-13 10:33N 37°06' E 025°22'0 0.0
2014-Sep-13 09:33N 37°06' E 025°22'7 6.9
2014-Sep-13 08:33N 37°11' E 025°16'7 7.1
2014-Sep-13 07:33N 37°14' E 025°08'7 7.2
2014-Sep-13 06:33N 37°17' E 024°60'8 7.6
2014-Sep-13 05:33N 37°21' E 024°51'8 7.7
2014-Sep-13 04:33N 37°24' E 024°43'7 7.3
2014-Sep-13 03:33N 37°27' E 024°34'7 7.4
2014-Sep-13 02:33N 37°30' E 024°26'10 7.6
2014-Sep-13 01:13N 37°31' E 024°13'7 7.9
2014-Sep-13 00:18N 37°33' E 024°04'16 8.0
2014-Sep-12 22:15N 37°39' E 023°44'5 7.5
2014-Sep-12 21:33N 37°43' E 023°40'8 8.0
2014-Sep-12 20:34N 37°50' E 023°36'7 7.2
2014-Sep-12 19:34N 37°57' E 023°35'0 0.0
2014-Sep-12 18:33N 37°57' E 023°35'0 0.0
2014-Sep-12 17:34N 37°57' E 023°35'0 0.0
2014-Sep-12 16:27N 37°57' E 023°35'0 0.0
2014-Sep-12 15:34N 37°57' E 023°35'0 0.0
2014-Sep-12 14:33N 37°57' E 023°35'0 0.0
2014-Sep-12 13:34N 37°57' E 023°35'0 0.0
2014-Sep-12 12:33N 37°57' E 023°35'0 0.0
2014-Sep-12 11:34N 37°57' E 023°35'4 3.7
2014-Sep-12 10:33N 37°54' E 023°36'9 9.1
2014-Sep-12 09:33N 37°46' E 023°42'26 8.4
2014-Sep-12 06:25N 37°33' E 024°11'9 8.7
2014-Sep-12 05:21N 37°31' E 024°22'8 9.3
2014-Sep-12 04:29N 37°31' E 024°32'9 9.1
2014-Sep-12 03:32N 37°32' E 024°43'9 8.8
2014-Sep-12 02:30N 37°32' E 024°55'8 8.9
2014-Sep-12 01:33N 37°32' E 025°05'3 3.1
2014-Sep-12 00:34N 37°32' E 025°09'0 0.0
2014-Sep-11 23:33N 37°32' E 025°09'0 0.0
2014-Sep-11 22:33N 37°32' E 025°09'2 1.9
2014-Sep-11 21:33N 37°31' E 025°07'9 8.5
2014-Sep-11 20:33N 37°27' E 024°58'2 1.6
2014-Sep-11 19:32N 37°26' E 024°56'0 0.0
2014-Sep-11 18:32N 37°26' E 024°56'0 0.0
2014-Sep-11 17:32N 37°26' E 024°56'0 0.0
2014-Sep-11 16:33N 37°26' E 024°56'0 0.0
2014-Sep-11 15:33N 37°26' E 024°56'0 0.0
2014-Sep-11 14:30N 37°26' E 024°56'0 0.0
2014-Sep-11 13:33N 37°26' E 024°56'4 3.6
2014-Sep-11 12:33N 37°23' E 024°59'9 8.9
2014-Sep-11 11:33N 37°15' E 025°03'9 9.1
2014-Sep-11 10:33N 37°06' E 025°07'2 2.0
2014-Sep-11 09:31N 37°05' E 025°09'0 0.0
2014-Sep-11 08:32N 37°05' E 025°09'0 0.0
2014-Sep-11 07:33N 37°05' E 025°09'0 0.0
2014-Sep-11 06:32N 37°05' E 025°09'0 0.0
2014-Sep-11 05:32N 37°05' E 025°09'0 0.1
2014-Sep-11 04:32N 37°05' E 025°09'0 0.0
2014-Sep-11 03:32N 37°05' E 025°09'6 6.3
2014-Sep-11 02:33N 37°11' E 025°10'9 8.9
2014-Sep-11 01:33N 37°19' E 025°15'8 8.1
2014-Sep-11 00:33N 37°27' E 025°17'2 1.8
2014-Sep-10 23:33N 37°28' E 025°19'0 0.0
2014-Sep-10 22:33N 37°28' E 025°19'0 0.0
2014-Sep-10 21:33N 37°28' E 025°19'0 0.0
2014-Sep-10 20:33N 37°28' E 025°19'0 0.0
2014-Sep-10 19:33N 37°28' E 025°19'0 0.0
2014-Sep-10 18:33N 37°28' E 025°19'1 0.9
2014-Sep-10 17:33N 37°27' E 025°19'6 6.4
2014-Sep-10 16:33N 37°34' E 025°17'10 9.7
2014-Sep-10 15:33N 37°43' E 025°14'  
2014-Sep-05 15:30N 37°53' E 026°32'  
Track history (hours):
 
Tides and Currents Weather Stations Pressure Air Temp Water Temp Dewpoint Dewpoint Depression Visibility Wind Speed Wind Dir Waves Ship Positions

Agios Georgios I

Last reported at 2014-Sep-15 13:33 UTC. Time now 2014-Sep-17 07:33 UTC.
Position N 37°57' E 026°25'.

Length 59 m; draft 5 m.

Type: Ship (hazmat cat B). MMSI: 239912000.

Date/timePositionNaut miles runAvg speedWind from/ knotsBaromVisibWave heightAir tempDewpointWater temp
2014-Sep-15 13:33N 37°57' E 026°25'8 8.2
2014-Sep-15 12:33N 37°52' E 026°34'5 1.3
2014-Sep-15 08:30N 37°47' E 026°35'25 8.4
2014-Sep-15 05:33N 37°41' E 026°05'18 7.9
2014-Sep-15 03:16N 37°36' E 025°43'6 8.2
2014-Sep-15 02:32N 37°34' E 025°36'8 8.6
2014-Sep-15 01:33N 37°32' E 025°26'7 7.3
2014-Sep-15 00:33N 37°29' E 025°18'2 1.5
2014-Sep-14 23:33N 37°28' E 025°19'0 0.0
2014-Sep-14 22:33N 37°28' E 025°19'0 0.0
2014-Sep-14 21:33N 37°28' E 025°19'0 0.0
2014-Sep-14 20:33N 37°28' E 025°19'3 3.0
2014-Sep-14 19:33N 37°27' E 025°16'9 8.6
2014-Sep-14 18:33N 37°27' E 025°05'7 6.8
2014-Sep-14 17:32N 37°26' E 024°56'0 0.0
2014-Sep-14 16:32N 37°26' E 024°56'0 0.0
2014-Sep-14 15:33N 37°26' E 024°56'0 0.0
2014-Sep-14 14:32N 37°26' E 024°56'0 0.0
2014-Sep-14 13:33N 37°26' E 024°56'0 0.0
2014-Sep-14 12:33N 37°26' E 024°56'0 0.0
2014-Sep-14 11:32N 37°26' E 024°56'0 0.0
2014-Sep-14 10:32N 37°26' E 024°56'7 6.7
2014-Sep-14 09:33N 37°20' E 025°00'8 8.4
2014-Sep-14 08:33N 37°12' E 025°03'8 8.0
2014-Sep-14 07:33N 37°05' E 025°08'1 0.5
2014-Sep-14 06:32N 37°05' E 025°09'0 0.0
2014-Sep-14 05:32N 37°05' E 025°09'0 0.0
2014-Sep-14 04:31N 37°05' E 025°09'5 5.7
2014-Sep-14 03:33N 37°10' E 025°13'7 7.1
2014-Sep-14 02:33N 37°07' E 025°21'1 0.9
2014-Sep-14 01:33N 37°06' E 025°22'0 0.0
2014-Sep-13 21:33N 37°06' E 025°22'0 0.0
2014-Sep-13 20:32N 37°06' E 025°22'0 0.0
2014-Sep-13 19:32N 37°06' E 025°22'0 0.0
2014-Sep-13 18:33N 37°06' E 025°22'0 0.0
2014-Sep-13 17:33N 37°06' E 025°22'0 0.0
2014-Sep-13 16:33N 37°06' E 025°22'0 0.3
2014-Sep-13 15:33N 37°06' E 025°22'0 0.3
2014-Sep-13 14:33N 37°06' E 025°22'0 0.0
2014-Sep-13 13:33N 37°06' E 025°22'0 0.0
2014-Sep-13 12:33N 37°06' E 025°22'0 0.0
2014-Sep-13 11:33N 37°06' E 025°22'0 0.0
2014-Sep-13 10:33N 37°06' E 025°22'0 0.0
2014-Sep-13 09:33N 37°06' E 025°22'7 6.9
2014-Sep-13 08:33N 37°11' E 025°16'7 7.1
2014-Sep-13 07:33N 37°14' E 025°08'7 7.2
2014-Sep-13 06:33N 37°17' E 024°60'8 7.6
2014-Sep-13 05:33N 37°21' E 024°51'8 7.7
2014-Sep-13 04:33N 37°24' E 024°43'7 7.3
2014-Sep-13 03:33N 37°27' E 024°34'7 7.4
2014-Sep-13 02:33N 37°30' E 024°26'10 7.6
2014-Sep-13 01:13N 37°31' E 024°13'7 7.9
2014-Sep-13 00:18N 37°33' E 024°04'16 8.0
2014-Sep-12 22:15N 37°39' E 023°44'5 7.5
2014-Sep-12 21:33N 37°43' E 023°40'8 8.0
2014-Sep-12 20:34N 37°50' E 023°36'7 7.2
2014-Sep-12 19:34N 37°57' E 023°35'0 0.0
2014-Sep-12 18:33N 37°57' E 023°35'0 0.0
2014-Sep-12 17:34N 37°57' E 023°35'0 0.0
2014-Sep-12 16:27N 37°57' E 023°35'0 0.0
2014-Sep-12 15:34N 37°57' E 023°35'0 0.0
2014-Sep-12 14:33N 37°57' E 023°35'0 0.0
2014-Sep-12 13:34N 37°57' E 023°35'0 0.0
2014-Sep-12 12:33N 37°57' E 023°35'0 0.0
2014-Sep-12 11:34N 37°57' E 023°35'4 3.7
2014-Sep-12 10:33N 37°54' E 023°36'9 9.1
2014-Sep-12 09:33N 37°46' E 023°42'26 8.4
2014-Sep-12 06:25N 37°33' E 024°11'9 8.7
2014-Sep-12 05:21N 37°31' E 024°22'8 9.3
2014-Sep-12 04:29N 37°31' E 024°32'9 9.1
2014-Sep-12 03:32N 37°32' E 024°43'9 8.8
2014-Sep-12 02:30N 37°32' E 024°55'8 8.9
2014-Sep-12 01:33N 37°32' E 025°05'3 3.1
2014-Sep-12 00:34N 37°32' E 025°09'0 0.0
2014-Sep-11 23:33N 37°32' E 025°09'0 0.0
2014-Sep-11 22:33N 37°32' E 025°09'2 1.9
2014-Sep-11 21:33N 37°31' E 025°07'9 8.5
2014-Sep-11 20:33N 37°27' E 024°58'2 1.6
2014-Sep-11 19:32N 37°26' E 024°56'0 0.0
2014-Sep-11 18:32N 37°26' E 024°56'0 0.0
2014-Sep-11 17:32N 37°26' E 024°56'0 0.0
2014-Sep-11 16:33N 37°26' E 024°56'0 0.0
2014-Sep-11 15:33N 37°26' E 024°56'0 0.0
2014-Sep-11 14:30N 37°26' E 024°56'0 0.0
2014-Sep-11 13:33N 37°26' E 024°56'4 3.6
2014-Sep-11 12:33N 37°23' E 024°59'9 8.9
2014-Sep-11 11:33N 37°15' E 025°03'9 9.1
2014-Sep-11 10:33N 37°06' E 025°07'2 2.0
2014-Sep-11 09:31N 37°05' E 025°09'0 0.0
2014-Sep-11 08:32N 37°05' E 025°09'0 0.0
2014-Sep-11 07:33N 37°05' E 025°09'0 0.0
2014-Sep-11 06:32N 37°05' E 025°09'0 0.0
2014-Sep-11 05:32N 37°05' E 025°09'0 0.1
2014-Sep-11 04:32N 37°05' E 025°09'0 0.0
2014-Sep-11 03:32N 37°05' E 025°09'6 6.3
2014-Sep-11 02:33N 37°11' E 025°10'9 8.9
2014-Sep-11 01:33N 37°19' E 025°15'8 8.1
2014-Sep-11 00:33N 37°27' E 025°17'2 1.8
2014-Sep-10 23:33N 37°28' E 025°19'0 0.0
2014-Sep-10 22:33N 37°28' E 025°19'0 0.0
2014-Sep-10 21:33N 37°28' E 025°19'0 0.0
2014-Sep-10 20:33N 37°28' E 025°19'0 0.0
2014-Sep-10 19:33N 37°28' E 025°19'0 0.0
2014-Sep-10 18:33N 37°28' E 025°19'1 0.9
2014-Sep-10 17:33N 37°27' E 025°19'6 6.4
2014-Sep-10 16:33N 37°34' E 025°17'10 9.7
2014-Sep-10 15:33N 37°43' E 025°14'  
2014-Sep-05 15:30N 37°53' E 026°32'  

Dump ship's entire track history